createdAt,value
2019-03-30T00:03:01.590Z,104.17
2019-03-30T00:08:05.443Z,95.72
2019-03-30T00:13:09.387Z,108.80
2019-03-30T00:18:13.156Z,106.72
2019-03-30T00:23:17.064Z,113.88
2019-03-30T00:28:20.799Z,104.87
2019-03-30T00:33:24.689Z,104.00
2019-03-30T00:38:28.421Z,100.30
2019-03-30T00:43:32.218Z,97.80
2019-03-30T00:48:36.029Z,102.22
2019-03-30T00:53:40.147Z,92.05
2019-03-30T00:58:44.287Z,96.92
2019-03-30T01:03:48.032Z,92.53
2019-03-30T01:08:51.904Z,91.90
2019-03-30T01:13:55.707Z,93.67
2019-03-30T01:18:59.472Z,81.50
2019-03-30T01:24:03.253Z,92.22
2019-03-30T01:29:07.222Z,99.22
2019-03-30T01:34:11.110Z,100.10
2019-03-30T01:39:15.070Z,100.35
2019-03-30T01:44:18.893Z,99.87
2019-03-30T01:49:23.267Z,99.70
2019-03-30T01:54:27.345Z,101.60
2019-03-30T01:59:31.085Z,100.15
2019-03-30T02:04:34.947Z,87.55
2019-03-30T02:09:38.889Z,101.00
2019-03-30T02:14:42.955Z,83.22
2019-03-30T02:19:47.233Z,86.87
2019-03-30T02:24:51.183Z,86.55
2019-03-30T02:29:54.971Z,78.85
2019-03-30T02:34:58.767Z,90.80
2019-03-30T02:40:02.559Z,85.40
2019-03-30T02:45:06.652Z,93.25
2019-03-30T02:50:10.663Z,89.05
2019-03-30T02:55:14.407Z,83.37
2019-03-30T03:00:19.244Z,85.12
2019-03-30T03:05:23.046Z,89.83
2019-03-30T03:10:26.915Z,82.54
2019-03-30T03:15:30.788Z,79.45
2019-03-30T03:20:34.778Z,89.42
2019-03-30T03:25:38.509Z,87.37
2019-03-30T03:30:42.307Z,86.63
2019-03-30T03:35:46.098Z,80.25
2019-03-30T03:40:50.259Z,81.17
2019-03-30T03:45:54.267Z,76.80
2019-03-30T03:51:02.781Z,77.25
2019-03-30T03:56:07.364Z,81.63
2019-03-30T04:01:14.155Z,82.70
2019-03-30T04:06:21.385Z,79.62
2019-03-30T04:11:30.250Z,75.72
2019-03-30T04:16:34.209Z,70.08
2019-03-30T04:21:44.507Z,77.23
2019-03-30T04:26:43.704Z,68.65
2019-03-30T04:31:47.508Z,80.10
2019-03-30T04:36:51.339Z,78.55
2019-03-30T04:41:55.297Z,63.83
2019-03-30T04:46:59.658Z,74.37
2019-03-30T04:52:03.935Z,68.65
2019-03-30T04:57:07.897Z,72.92
2019-03-30T05:02:11.707Z,75.78
2019-03-30T05:07:15.995Z,70.40
2019-03-30T05:12:19.888Z,74.15
2019-03-30T05:17:23.801Z,69.53
2019-03-30T05:22:27.848Z,69.53
2019-03-30T05:27:32.132Z,62.30
2019-03-30T05:32:36.012Z,65.15
2019-03-30T05:37:39.885Z,77.10
2019-03-30T05:42:43.686Z,67.25
2019-03-30T05:47:47.441Z,89.27
2019-03-30T05:52:51.237Z,79.77
2019-03-30T05:57:55.230Z,74.70
2019-03-30T06:02:59.031Z,81.70
2019-03-30T06:08:02.765Z,82.08
2019-03-30T06:13:06.663Z,95.40
2019-03-30T06:18:11.506Z,92.82
2019-03-30T06:23:15.458Z,101.97
2019-03-30T06:28:19.373Z,89.45
2019-03-30T06:33:23.334Z,86.47
2019-03-30T06:38:27.470Z,91.67
2019-03-30T06:43:31.216Z,95.77
2019-03-30T06:48:36.255Z,87.35
2019-03-30T06:53:40.278Z,92.47
2019-03-30T06:58:44.158Z,77.27
2019-03-30T07:03:48.091Z,79.85
2019-03-30T07:08:55.017Z,81.30
2019-03-30T07:14:03.279Z,86.17
2019-03-30T07:19:07.113Z,80.28
2019-03-30T07:24:10.905Z,82.97
2019-03-30T07:29:15.155Z,73.37
2019-03-30T07:34:18.920Z,86.50
2019-03-30T07:39:23.034Z,87.85
2019-03-30T07:44:26.939Z,89.95
2019-03-30T07:49:30.715Z,93.27
2019-03-30T07:54:34.838Z,82.65
2019-03-30T07:59:38.815Z,88.67
2019-03-30T08:04:42.622Z,72.42
2019-03-30T08:09:46.411Z,61.85
2019-03-30T08:14:50.185Z,58.28
2019-03-30T08:19:54.063Z,65.12
2019-03-30T08:24:57.853Z,68.22
2019-03-30T08:30:01.915Z,66.02
2019-03-30T08:35:07.299Z,67.20
2019-03-30T08:40:11.364Z,66.25
2019-03-30T08:45:15.351Z,70.37
2019-03-30T08:50:19.128Z,50.00
2019-03-30T08:55:23.023Z,56.18
2019-03-30T09:00:43.240Z,57.05
2019-03-30T09:05:47.222Z,55.60
2019-03-30T09:10:51.019Z,51.05
2019-03-30T09:15:55.094Z,47.62
2019-03-30T09:20:59.052Z,46.18
2019-03-30T09:26:03.398Z,44.53
2019-03-30T09:31:07.324Z,42.45
2019-03-30T09:36:11.144Z,44.23
2019-03-30T09:41:14.906Z,36.68
2019-03-30T09:46:19.009Z,38.65
2019-03-30T09:51:22.841Z,33.20
2019-03-30T09:56:26.638Z,35.55
2019-03-30T10:01:30.813Z,38.25
2019-03-30T10:06:34.882Z,37.15
2019-03-30T10:11:38.839Z,30.43
2019-03-30T10:16:42.725Z,36.73
2019-03-30T10:21:46.684Z,37.75
2019-03-30T10:26:50.457Z,35.23
2019-03-30T10:31:54.364Z,39.13
2019-03-30T10:36:58.248Z,34.73
2019-03-30T10:42:02.072Z,30.30
2019-03-30T10:48:29.994Z,30.48
2019-03-30T10:53:33.782Z,32.60
2019-03-30T10:58:38.076Z,27.75
2019-03-30T11:03:41.822Z,30.17
2019-03-30T11:08:45.635Z,32.85
2019-03-30T11:13:49.390Z,31.90
2019-03-30T11:18:53.506Z,31.12
2019-03-30T11:23:57.288Z,32.08
2019-03-30T11:29:01.048Z,29.52
2019-03-30T11:34:05.445Z,30.10
2019-03-30T11:39:09.465Z,31.85
2019-03-30T11:44:13.227Z,35.83
2019-03-30T11:49:17.222Z,30.72
2019-03-30T11:54:21.152Z,27.10
2019-03-30T11:59:25.005Z,34.23
2019-03-30T12:04:29.042Z,29.50
2019-03-30T12:09:32.940Z,33.33
2019-03-30T12:14:36.844Z,34.95
2019-03-30T12:19:40.593Z,27.77
2019-03-30T12:24:44.561Z,25.00
2019-03-30T12:29:48.835Z,27.30
2019-03-30T12:34:53.101Z,31.37
2019-03-30T12:39:58.423Z,38.35
2019-03-30T12:45:02.886Z,29.55
2019-03-30T12:50:06.999Z,24.92
2019-03-30T12:55:11.128Z,31.20
2019-03-30T13:00:15.416Z,24.00
2019-03-30T13:05:19.522Z,20.95
2019-03-30T13:10:23.441Z,18.87
2019-03-30T13:15:27.349Z,18.25
2019-03-30T13:20:31.507Z,22.05
2019-03-30T13:25:35.338Z,20.95
2019-03-30T13:30:39.561Z,21.75
2019-03-30T13:35:43.350Z,17.35
2019-03-30T13:40:47.921Z,18.10
2019-03-30T14:01:52.350Z,22.73
2019-03-30T14:07:24.591Z,19.27
2019-03-30T14:12:28.509Z,21.77
2019-03-30T14:17:32.507Z,17.05
2019-03-30T14:22:36.774Z,17.42
2019-03-30T14:27:40.792Z,15.23
2019-03-30T14:32:45.078Z,18.25
2019-03-30T14:37:49.372Z,20.35
2019-03-30T14:42:53.473Z,21.37
2019-03-30T14:47:58.177Z,19.33
2019-03-30T14:53:02.770Z,16.48
2019-03-30T14:58:08.122Z,17.15
2019-03-30T15:03:12.272Z,15.00
2019-03-30T15:32:29.404Z,20.05
2019-03-30T15:37:33.492Z,19.32
2019-03-30T15:42:40.085Z,22.73
2019-03-30T15:47:43.137Z,25.47
2019-03-30T15:52:47.448Z,40.33
2019-03-30T15:57:51.281Z,39.17
2019-03-30T16:02:55.259Z,40.05
2019-03-30T16:07:59.160Z,48.13
2019-03-30T16:13:03.034Z,44.00
2019-03-30T16:18:06.935Z,46.73
2019-03-30T16:23:10.737Z,39.53
2019-03-30T16:28:14.527Z,37.00
2019-03-30T16:33:18.371Z,42.10
2019-03-30T16:38:22.336Z,35.17
2019-03-30T16:43:26.159Z,34.83
2019-03-30T16:48:29.978Z,39.13
2019-03-30T16:53:33.845Z,31.73
2019-03-30T16:58:38.000Z,32.08
2019-03-30T17:03:41.776Z,28.17
2019-03-30T17:08:46.021Z,33.05
2019-03-30T17:13:49.913Z,29.60
2019-03-30T17:18:53.681Z,26.07
2019-03-30T17:23:57.836Z,31.97
2019-03-30T17:29:01.743Z,23.85
2019-03-30T17:34:05.632Z,27.30
2019-03-30T17:39:11.216Z,27.73
2019-03-30T17:44:15.066Z,29.65
2019-03-30T17:49:18.915Z,32.33
2019-03-30T17:54:22.716Z,26.87
2019-03-30T17:59:28.304Z,26.40
2019-03-30T18:04:32.189Z,24.82
2019-03-30T18:09:36.060Z,30.15
2019-03-30T18:14:40.071Z,27.67
2019-03-30T18:19:44.101Z,31.35
2019-03-30T18:24:48.412Z,26.50
2019-03-30T18:29:52.584Z,26.57
2019-03-30T18:34:57.521Z,27.65
2019-03-30T18:40:01.992Z,28.20
2019-03-30T18:45:07.543Z,36.83
2019-03-30T18:50:13.097Z,25.73
2019-03-30T18:55:22.931Z,33.53
2019-03-30T19:00:27.499Z,38.15
2019-03-30T19:05:31.347Z,38.63
2019-03-30T19:10:35.108Z,38.45
2019-03-30T19:15:39.191Z,41.48
2019-03-30T19:20:43.057Z,40.83
2019-03-30T19:25:46.865Z,41.63
2019-03-30T19:30:50.978Z,41.70
2019-03-30T19:35:54.859Z,45.15
2019-03-30T19:40:58.789Z,69.10
2019-03-30T19:46:02.999Z,74.25
2019-03-30T19:51:06.825Z,86.40
2019-03-30T19:56:10.732Z,74.80
2019-03-30T20:01:14.640Z,75.80
2019-03-30T20:06:18.822Z,99.55
2019-03-30T20:11:22.670Z,107.40
2019-03-30T20:16:26.496Z,111.25
2019-03-30T20:21:30.298Z,120.60
2019-03-30T20:26:34.416Z,129.50
2019-03-30T20:31:38.609Z,126.30
2019-03-30T20:36:42.406Z,132.60
2019-03-30T20:41:46.283Z,130.67
2019-03-30T20:46:50.560Z,133.97
2019-03-30T20:51:54.928Z,148.15
2019-03-30T20:56:58.966Z,143.95
2019-03-30T21:02:02.710Z,163.82
2019-03-30T21:07:06.474Z,156.50
2019-03-30T21:12:10.250Z,169.32
2019-03-30T21:17:14.062Z,164.95
2019-03-30T21:22:17.978Z,158.27
2019-03-30T21:27:21.938Z,171.77
2019-03-30T21:32:25.812Z,163.18
2019-03-30T21:37:29.677Z,154.90
2019-03-30T21:42:33.901Z,162.03
2019-03-30T21:47:38.281Z,146.90
2019-03-30T21:52:42.122Z,148.63
2019-03-30T21:57:45.897Z,151.27
2019-03-30T22:02:49.744Z,136.40
2019-03-30T22:07:53.540Z,130.57
2019-03-30T22:12:57.340Z,124.02
2019-03-30T22:18:01.328Z,136.13
2019-03-30T22:23:05.172Z,127.90
2019-03-30T22:28:08.942Z,134.63
2019-03-30T22:33:13.110Z,123.58
2019-03-30T22:38:16.903Z,130.57
2019-03-30T22:43:20.669Z,128.05
2019-03-30T22:48:24.521Z,135.48
2019-03-30T22:53:28.296Z,128.42
2019-03-30T22:58:32.153Z,140.82
2019-03-30T23:03:36.042Z,131.67
2019-03-30T23:08:40.392Z,126.60
2019-03-30T23:13:44.278Z,128.93
2019-03-30T23:18:48.091Z,127.62
2019-03-30T23:23:51.870Z,127.38
2019-03-30T23:28:59.191Z,120.17
2019-03-30T23:34:01.425Z,122.60
2019-03-30T23:39:07.635Z,140.65
2019-03-30T23:44:11.395Z,140.82
2019-03-30T23:49:15.588Z,161.22
2019-03-30T23:54:19.523Z,107.87
2019-03-30T23:59:23.314Z,116.53
